createdAt,value
2017-10-05T00:00:43.776Z,73.22
2017-10-05T00:01:50.568Z,73.26
2017-10-05T00:02:57.358Z,73.29
2017-10-05T00:04:04.145Z,73.37
2017-10-05T00:05:11.015Z,73.40
2017-10-05T00:06:17.742Z,73.47
2017-10-05T00:07:24.519Z,73.55
2017-10-05T00:08:31.284Z,73.58
2017-10-05T00:09:38.045Z,73.63
2017-10-05T00:10:44.783Z,73.62
2017-10-05T00:11:51.544Z,73.69
2017-10-05T00:12:58.269Z,73.73
2017-10-05T00:14:05.013Z,73.84
2017-10-05T00:15:11.794Z,73.97
2017-10-05T00:16:18.743Z,74.05
2017-10-05T00:17:25.515Z,74.18
2017-10-05T00:18:32.299Z,74.26
2017-10-05T00:19:39.041Z,74.30
2017-10-05T00:20:45.749Z,74.40
2017-10-05T00:21:52.471Z,74.52
2017-10-05T00:22:59.230Z,74.57
2017-10-05T00:24:06.042Z,74.64
2017-10-05T00:25:12.765Z,74.74
2017-10-05T00:26:19.584Z,74.89
2017-10-05T00:27:26.386Z,74.94
2017-10-05T00:28:33.137Z,75.06
2017-10-05T00:29:40.633Z,75.09
2017-10-05T00:30:46.900Z,75.18
2017-10-05T00:31:53.677Z,75.25
2017-10-05T00:33:00.465Z,75.29
2017-10-05T00:34:07.196Z,75.37
2017-10-05T00:35:13.939Z,75.46
2017-10-05T00:36:20.691Z,75.56
2017-10-05T00:37:27.441Z,75.57
2017-10-05T00:38:34.196Z,75.68
2017-10-05T00:39:40.949Z,75.73
2017-10-05T00:40:47.762Z,75.79
2017-10-05T00:41:54.493Z,75.87
2017-10-05T00:43:01.271Z,75.95
2017-10-05T00:44:08.014Z,76.04
2017-10-05T00:45:14.765Z,76.10
2017-10-05T00:46:21.543Z,76.17
2017-10-05T00:47:28.294Z,76.24
2017-10-05T00:48:35.089Z,76.24
2017-10-05T00:49:41.890Z,76.27
2017-10-05T00:50:48.704Z,76.33
2017-10-05T00:51:55.461Z,76.41
2017-10-05T00:53:02.237Z,76.48
2017-10-05T00:54:08.985Z,76.51
2017-10-05T00:55:15.782Z,76.54
2017-10-05T00:56:22.621Z,76.61
2017-10-05T00:57:29.490Z,76.64
2017-10-05T00:58:36.350Z,76.70
2017-10-05T00:59:43.193Z,76.74
2017-10-05T01:00:49.978Z,76.75
2017-10-05T01:01:56.839Z,76.82
2017-10-05T01:03:03.617Z,76.87
2017-10-05T01:04:10.437Z,76.91
2017-10-05T01:05:17.429Z,76.96
2017-10-05T01:06:24.201Z,77.02
2017-10-05T01:07:31.059Z,77.04
2017-10-05T01:08:37.843Z,77.04
2017-10-05T01:09:44.670Z,77.09
2017-10-05T01:10:51.415Z,77.16
2017-10-05T01:11:58.198Z,77.19
2017-10-05T01:13:05.005Z,77.22
2017-10-05T01:14:11.757Z,77.28
2017-10-05T01:15:18.526Z,77.32
2017-10-05T01:16:25.306Z,77.32
2017-10-05T01:17:32.158Z,77.39
2017-10-05T01:18:39.254Z,77.41
2017-10-05T01:19:46.033Z,77.43
2017-10-05T01:20:52.852Z,77.46
2017-10-05T01:21:59.740Z,77.47
2017-10-05T01:23:06.575Z,77.47
2017-10-05T01:24:13.446Z,77.52
2017-10-05T01:25:20.286Z,77.53
2017-10-05T01:26:27.141Z,77.57
2017-10-05T01:27:34.022Z,77.62
2017-10-05T01:28:40.963Z,77.62
2017-10-05T01:29:48.017Z,77.68
2017-10-05T01:30:54.873Z,77.70
2017-10-05T01:32:01.681Z,77.76
2017-10-05T01:33:08.472Z,77.78
2017-10-05T01:34:15.266Z,77.79
2017-10-05T01:35:22.054Z,77.84
2017-10-05T01:36:28.821Z,77.84
2017-10-05T01:37:35.652Z,77.86
2017-10-05T01:38:42.410Z,77.87
2017-10-05T01:39:49.534Z,77.91
2017-10-05T01:40:56.345Z,77.93
2017-10-05T01:42:03.185Z,77.94
2017-10-05T01:43:10.140Z,77.99
2017-10-05T01:44:16.974Z,77.99
2017-10-05T01:45:23.782Z,78.02
2017-10-05T01:46:30.580Z,78.04
2017-10-05T01:47:37.406Z,78.06
2017-10-05T01:48:44.186Z,78.06
2017-10-05T01:49:51.109Z,78.09
2017-10-05T01:50:57.896Z,78.13
2017-10-05T01:52:04.687Z,78.11
2017-10-05T01:53:11.476Z,78.14
2017-10-05T01:54:18.278Z,78.15
2017-10-05T01:55:25.113Z,78.18
2017-10-05T01:56:32.114Z,78.19
2017-10-05T01:57:38.917Z,78.22
2017-10-05T01:58:45.737Z,78.24
2017-10-05T01:59:52.526Z,78.25
2017-10-05T02:00:59.301Z,78.28
2017-10-05T02:02:06.149Z,78.25
2017-10-05T02:03:12.917Z,78.24
2017-10-05T02:04:19.741Z,78.24
2017-10-05T02:05:26.997Z,78.25
2017-10-05T02:06:33.389Z,78.24
2017-10-05T02:07:40.163Z,78.28
2017-10-05T02:08:46.981Z,78.35
2017-10-05T02:09:53.814Z,78.31
2017-10-05T02:11:00.677Z,78.34
2017-10-05T02:12:07.573Z,78.31
2017-10-05T02:13:14.393Z,78.31
2017-10-05T02:14:21.287Z,78.28
2017-10-05T02:15:28.031Z,78.27
2017-10-05T02:16:34.765Z,78.24
2017-10-05T02:17:41.571Z,78.28
2017-10-05T02:18:48.349Z,78.29
2017-10-05T02:19:55.129Z,78.28
2017-10-05T02:21:01.933Z,78.27
2017-10-05T02:22:08.693Z,78.26
2017-10-05T02:23:15.469Z,78.24
2017-10-05T02:24:22.234Z,78.24
2017-10-05T02:25:29.092Z,78.25
2017-10-05T02:26:36.106Z,78.27
2017-10-05T02:27:42.902Z,78.26
2017-10-05T02:28:49.670Z,78.26
2017-10-05T02:29:56.689Z,78.28
2017-10-05T02:31:03.529Z,78.26
2017-10-05T02:32:10.374Z,78.25
2017-10-05T02:33:17.122Z,78.30
2017-10-05T02:34:23.993Z,78.23
2017-10-05T02:35:30.745Z,78.18
2017-10-05T02:36:37.598Z,78.21
2017-10-05T02:37:44.369Z,78.23
2017-10-05T02:38:51.170Z,78.21
2017-10-05T02:39:57.966Z,78.18
2017-10-05T02:41:04.741Z,78.19
2017-10-05T02:42:11.521Z,78.20
2017-10-05T02:43:18.355Z,78.20
2017-10-05T02:44:25.399Z,78.22
2017-10-05T02:45:32.161Z,78.17
2017-10-05T02:46:38.929Z,78.18
2017-10-05T02:47:45.983Z,78.18
2017-10-05T02:48:52.737Z,78.20
2017-10-05T02:49:59.682Z,78.19
2017-10-05T02:51:06.524Z,78.21
2017-10-05T02:52:13.311Z,78.20
2017-10-05T02:53:20.080Z,78.23
2017-10-05T02:54:26.869Z,78.22
2017-10-05T02:55:33.656Z,78.21
2017-10-05T02:56:40.410Z,78.20
2017-10-05T02:57:47.217Z,78.20
2017-10-05T02:58:53.976Z,78.21
2017-10-05T03:00:00.710Z,78.21
2017-10-05T03:01:07.527Z,78.23
2017-10-05T03:02:14.346Z,78.26
2017-10-05T03:03:21.109Z,78.24
2017-10-05T03:04:27.881Z,78.26
2017-10-05T03:05:35.104Z,78.25
2017-10-05T03:06:41.858Z,78.25
2017-10-05T03:07:48.600Z,78.26
2017-10-05T03:08:55.349Z,78.28
2017-10-05T03:10:02.166Z,78.26
2017-10-05T03:11:08.907Z,78.26
2017-10-05T03:12:15.645Z,78.30
2017-10-05T03:13:22.402Z,78.27
2017-10-05T03:14:29.268Z,78.28
2017-10-05T03:15:36.058Z,78.30
2017-10-05T03:16:42.785Z,78.33
2017-10-05T03:17:49.550Z,78.31
2017-10-05T03:18:56.291Z,78.31
2017-10-05T03:20:03.027Z,78.32
2017-10-05T03:21:09.756Z,78.31
2017-10-05T03:22:16.500Z,78.32
2017-10-05T03:23:23.244Z,78.33
2017-10-05T03:24:30.001Z,78.37
2017-10-05T03:25:36.847Z,78.38
2017-10-05T03:26:43.645Z,78.38
2017-10-05T03:27:50.381Z,78.39
2017-10-05T03:28:57.217Z,78.42
2017-10-05T03:30:04.034Z,78.41
2017-10-05T03:31:10.879Z,78.48
2017-10-05T03:32:17.603Z,78.49
2017-10-05T03:33:24.429Z,78.49
2017-10-05T03:34:31.213Z,78.52
2017-10-05T03:35:38.049Z,78.57
2017-10-05T03:36:44.782Z,78.61
2017-10-05T03:37:51.546Z,78.66
2017-10-05T03:38:58.297Z,78.67
2017-10-05T03:40:05.118Z,78.69
2017-10-05T03:41:11.886Z,78.72
2017-10-05T03:42:18.638Z,78.75
2017-10-05T03:43:25.363Z,78.73
2017-10-05T03:44:32.194Z,78.77
2017-10-05T03:45:38.965Z,78.78
2017-10-05T03:46:45.717Z,78.84
2017-10-05T03:47:52.499Z,78.84
2017-10-05T03:48:59.250Z,78.86
2017-10-05T03:50:06.056Z,78.87
2017-10-05T03:51:12.847Z,78.90
2017-10-05T03:52:19.598Z,78.90
2017-10-05T03:53:26.347Z,78.93
2017-10-05T03:54:33.152Z,78.93
2017-10-05T03:55:40.045Z,78.95
2017-10-05T03:56:47.130Z,78.96
2017-10-05T03:57:53.982Z,78.96
2017-10-05T03:59:00.781Z,79.00
2017-10-05T04:00:07.683Z,79.03
2017-10-05T04:01:14.834Z,79.05
2017-10-05T04:02:21.655Z,79.04
2017-10-05T04:03:28.390Z,79.04
2017-10-05T04:04:35.300Z,79.04
2017-10-05T04:05:42.229Z,79.04
2017-10-05T04:06:49.026Z,79.05
2017-10-05T04:07:55.813Z,79.06
2017-10-05T04:09:02.601Z,79.06
2017-10-05T04:10:09.525Z,79.09
2017-10-05T04:11:16.362Z,79.08
2017-10-05T04:12:23.438Z,79.03
2017-10-05T04:13:30.285Z,79.04
2017-10-05T04:14:37.091Z,79.04
2017-10-05T04:15:43.850Z,79.02
2017-10-05T04:16:50.672Z,79.04
2017-10-05T04:17:57.467Z,79.03
2017-10-05T04:19:04.197Z,79.04
2017-10-05T04:20:11.022Z,79.05
2017-10-05T04:21:17.882Z,79.03
2017-10-05T04:22:24.689Z,79.03
2017-10-05T04:23:31.406Z,79.04
2017-10-05T04:24:38.174Z,79.04
2017-10-05T04:25:44.964Z,79.05
2017-10-05T04:26:51.780Z,79.04
2017-10-05T04:27:58.608Z,79.03
2017-10-05T04:29:05.378Z,79.07
2017-10-05T04:30:12.103Z,79.06
2017-10-05T04:31:18.962Z,79.03
2017-10-05T04:32:25.749Z,79.04
2017-10-05T04:33:33.048Z,79.07
2017-10-05T04:34:39.827Z,79.03
2017-10-05T04:35:46.068Z,79.04
2017-10-05T04:36:52.817Z,79.05
2017-10-05T04:37:59.554Z,79.05
2017-10-05T04:39:06.285Z,79.09
2017-10-05T04:40:13.342Z,79.08
2017-10-05T04:41:20.089Z,79.07
2017-10-05T04:42:26.886Z,79.02
2017-10-05T04:43:33.662Z,79.01
2017-10-05T04:44:40.405Z,79.00
2017-10-05T04:45:47.192Z,78.99
2017-10-05T04:46:53.922Z,78.97
2017-10-05T04:48:00.773Z,79.00
2017-10-05T04:49:07.557Z,78.96
2017-10-05T04:50:14.295Z,78.95
2017-10-05T04:51:21.122Z,78.95
2017-10-05T04:52:27.952Z,78.95
2017-10-05T04:53:34.673Z,78.94
2017-10-05T04:54:41.461Z,78.92
2017-10-05T04:55:48.221Z,78.92
2017-10-05T04:56:55.064Z,78.90
2017-10-05T04:58:01.962Z,78.92
2017-10-05T04:59:08.759Z,78.90
2017-10-05T05:00:15.596Z,78.86
2017-10-05T05:01:22.406Z,78.86
2017-10-05T05:02:29.213Z,78.82
2017-10-05T05:03:35.982Z,78.82
2017-10-05T05:04:42.721Z,78.80
2017-10-05T05:05:50.034Z,78.81
2017-10-05T05:06:56.409Z,78.79
2017-10-05T05:08:03.151Z,78.80
2017-10-05T05:09:09.941Z,78.80
2017-10-05T05:10:16.713Z,78.78
2017-10-05T05:11:23.450Z,78.77
2017-10-05T05:12:30.271Z,78.75
2017-10-05T05:13:37.088Z,78.75
2017-10-05T05:14:43.841Z,78.78
2017-10-05T05:15:50.593Z,78.78
2017-10-05T05:16:57.313Z,78.78
2017-10-05T05:18:04.102Z,78.76
2017-10-05T05:19:10.875Z,78.77
2017-10-05T05:20:17.620Z,78.80
2017-10-05T05:21:24.437Z,78.77
2017-10-05T05:22:31.209Z,78.77
2017-10-05T05:23:38.004Z,78.80
2017-10-05T05:24:44.806Z,78.78
2017-10-05T05:25:51.566Z,78.79
2017-10-05T05:26:58.411Z,78.82
2017-10-05T05:28:05.200Z,78.86
2017-10-05T05:29:12.556Z,78.87
2017-10-05T05:30:18.910Z,78.91
2017-10-05T05:31:25.646Z,78.93
2017-10-05T05:32:32.393Z,78.98
2017-10-05T05:33:39.170Z,78.97
2017-10-05T05:34:45.944Z,79.02
2017-10-05T05:35:52.691Z,79.04
2017-10-05T05:36:59.473Z,79.08
2017-10-05T05:38:06.268Z,79.07
2017-10-05T05:39:13.097Z,79.11
2017-10-05T05:40:19.859Z,79.14
2017-10-05T05:41:26.607Z,79.13
2017-10-05T05:42:33.377Z,79.15
2017-10-05T05:43:40.153Z,79.17
2017-10-05T05:44:46.962Z,79.18
2017-10-05T05:45:53.751Z,79.18
2017-10-05T05:47:00.600Z,79.14
2017-10-05T05:48:07.352Z,79.13
2017-10-05T05:49:14.127Z,79.14
2017-10-05T05:50:20.844Z,79.10
2017-10-05T05:51:27.752Z,79.08
2017-10-05T05:52:34.505Z,79.07
2017-10-05T05:53:41.230Z,79.06
2017-10-05T05:54:48.046Z,79.08
2017-10-05T05:55:54.758Z,79.07
2017-10-05T05:57:01.562Z,79.08
2017-10-05T05:58:08.514Z,79.07
2017-10-05T05:59:15.297Z,79.08
2017-10-05T06:00:22.036Z,79.07
2017-10-05T06:01:28.853Z,79.07
2017-10-05T06:02:35.700Z,79.07
2017-10-05T06:03:42.601Z,79.06
2017-10-05T06:04:49.211Z,79.08
2017-10-05T06:05:56.178Z,79.11
2017-10-05T06:07:03.063Z,79.10
2017-10-05T06:08:09.966Z,79.08
2017-10-05T06:09:16.783Z,79.09
2017-10-05T06:10:23.549Z,79.10
2017-10-05T06:11:30.366Z,79.12
2017-10-05T06:12:37.157Z,79.13
2017-10-05T06:13:43.945Z,79.13
2017-10-05T06:14:50.742Z,79.14
2017-10-05T06:15:57.787Z,79.14
2017-10-05T06:17:04.672Z,79.17
2017-10-05T06:18:11.538Z,79.16
2017-10-05T06:19:18.328Z,79.18
2017-10-05T06:20:25.132Z,79.20
2017-10-05T06:21:31.900Z,79.26
2017-10-05T06:22:38.769Z,79.19
2017-10-05T06:23:45.544Z,79.20
2017-10-05T06:24:52.492Z,79.17
2017-10-05T06:25:59.433Z,79.27
2017-10-05T06:27:06.289Z,79.30
2017-10-05T06:28:13.161Z,79.30
2017-10-05T06:29:19.961Z,79.23
2017-10-05T06:30:26.902Z,79.23
2017-10-05T06:31:33.802Z,79.26
2017-10-05T06:32:40.643Z,79.26
2017-10-05T06:33:47.418Z,79.24
2017-10-05T06:34:54.208Z,79.24
2017-10-05T06:36:01.112Z,79.24
2017-10-05T06:37:07.890Z,79.28
2017-10-05T06:38:14.697Z,79.28
2017-10-05T06:39:21.504Z,79.31
2017-10-05T06:40:28.311Z,79.31
2017-10-05T06:41:35.077Z,79.33
2017-10-05T06:42:41.981Z,79.41
2017-10-05T06:43:48.815Z,79.46
2017-10-05T06:44:55.727Z,79.47
2017-10-05T06:46:02.706Z,79.44
2017-10-05T06:47:09.671Z,79.47
2017-10-05T06:48:16.465Z,79.47
2017-10-05T06:49:23.335Z,79.46
2017-10-05T06:50:30.148Z,79.46
2017-10-05T06:51:37.026Z,79.43
2017-10-05T06:52:43.806Z,79.44
2017-10-05T06:53:50.550Z,79.54
2017-10-05T06:54:57.325Z,79.55
2017-10-05T06:56:04.177Z,79.49
2017-10-05T06:57:10.963Z,79.51
2017-10-05T06:58:17.738Z,79.54
2017-10-05T06:59:24.521Z,79.51
2017-10-05T07:00:31.393Z,79.50
2017-10-05T07:01:38.160Z,79.51
2017-10-05T07:02:44.950Z,79.55
2017-10-05T07:03:51.737Z,79.60
2017-10-05T07:04:58.501Z,79.60
2017-10-05T07:06:05.908Z,79.64
2017-10-05T07:07:12.192Z,79.63
2017-10-05T07:08:19.084Z,79.67
2017-10-05T07:09:25.941Z,79.68
2017-10-05T07:10:32.793Z,79.63
2017-10-05T07:11:39.558Z,79.67
2017-10-05T07:12:46.346Z,79.61
2017-10-05T07:13:53.129Z,79.62
2017-10-05T07:14:59.986Z,79.62
2017-10-05T07:16:06.769Z,79.70
2017-10-05T07:17:13.512Z,79.67
2017-10-05T07:18:20.224Z,79.71
2017-10-05T07:19:27.079Z,79.64
2017-10-05T07:20:33.848Z,79.64
2017-10-05T07:21:40.623Z,79.67
2017-10-05T07:22:47.381Z,79.65
2017-10-05T07:23:54.101Z,79.65
2017-10-05T07:25:00.914Z,79.65
2017-10-05T07:26:07.926Z,79.66
2017-10-05T07:27:14.708Z,79.67
2017-10-05T07:28:21.471Z,79.64
2017-10-05T07:29:28.962Z,79.64
2017-10-05T07:30:35.245Z,79.63
2017-10-05T07:31:41.990Z,79.62
2017-10-05T07:32:48.733Z,79.64
2017-10-05T07:33:55.481Z,79.63
2017-10-05T07:35:02.257Z,79.65
2017-10-05T07:36:09.001Z,79.64
2017-10-05T07:37:15.741Z,79.66
2017-10-05T07:38:22.476Z,79.78
2017-10-05T07:39:29.216Z,79.90
2017-10-05T07:40:35.925Z,79.95
2017-10-05T07:41:42.685Z,79.97
2017-10-05T07:42:49.409Z,80.04
2017-10-05T07:43:56.189Z,80.10
2017-10-05T07:45:02.937Z,80.09
2017-10-05T07:46:09.691Z,80.09
2017-10-05T07:47:16.469Z,80.04
2017-10-05T07:48:23.211Z,80.01
2017-10-05T07:49:29.948Z,79.87
2017-10-05T07:50:36.693Z,79.85
2017-10-05T07:51:43.486Z,79.89
2017-10-05T07:52:50.227Z,79.82
2017-10-05T07:53:56.966Z,79.73
2017-10-05T07:55:03.719Z,79.73
2017-10-05T07:56:10.475Z,79.68
2017-10-05T07:57:17.529Z,79.66
2017-10-05T07:58:24.293Z,79.61
2017-10-05T07:59:31.207Z,79.65
2017-10-05T08:00:38.105Z,79.60
2017-10-05T08:01:44.912Z,79.61
2017-10-05T08:02:51.991Z,79.62
2017-10-05T08:03:58.821Z,79.57
2017-10-05T08:05:05.634Z,79.55
2017-10-05T08:06:12.445Z,79.56
2017-10-05T08:07:19.302Z,79.63
2017-10-05T08:08:26.129Z,79.63
2017-10-05T08:09:33.110Z,79.69
2017-10-05T08:10:39.904Z,79.64
2017-10-05T08:11:46.653Z,79.65
2017-10-05T08:12:53.429Z,79.64
2017-10-05T08:14:00.205Z,79.63
2017-10-05T08:15:06.925Z,79.59
2017-10-05T08:16:13.697Z,79.59
2017-10-05T08:17:20.441Z,79.58
2017-10-05T08:18:27.229Z,79.60
2017-10-05T08:19:33.938Z,79.58
2017-10-05T08:20:40.723Z,79.62
2017-10-05T08:21:48.054Z,79.62
2017-10-05T08:22:54.332Z,79.61
2017-10-05T08:24:01.065Z,79.66
2017-10-05T08:25:07.845Z,79.64
2017-10-05T08:26:14.610Z,79.66
2017-10-05T08:27:21.399Z,79.65
2017-10-05T08:28:28.120Z,79.64
2017-10-05T08:29:35.074Z,79.59
2017-10-05T08:30:41.831Z,79.63
2017-10-05T08:31:48.640Z,79.66
2017-10-05T08:32:55.410Z,79.68
2017-10-05T08:34:02.190Z,79.66
2017-10-05T08:35:09.001Z,79.67
2017-10-05T08:36:15.805Z,79.67
2017-10-05T08:37:22.576Z,79.65
2017-10-05T08:38:29.377Z,79.64
2017-10-05T08:39:36.096Z,79.70
2017-10-05T08:40:42.842Z,79.71
2017-10-05T08:41:49.626Z,79.76
2017-10-05T08:42:56.401Z,79.74
2017-10-05T08:44:03.135Z,79.74
2017-10-05T08:45:09.902Z,79.73
2017-10-05T08:46:16.729Z,79.74
2017-10-05T08:47:23.573Z,79.80
2017-10-05T08:48:30.325Z,79.81
2017-10-05T08:49:37.149Z,79.80
2017-10-05T08:50:43.897Z,79.82
2017-10-05T08:51:50.617Z,79.87
2017-10-05T08:52:57.458Z,79.83
2017-10-05T08:54:04.211Z,79.87
2017-10-05T08:55:10.974Z,79.91
2017-10-05T08:56:17.732Z,79.91
2017-10-05T08:57:24.453Z,79.92
2017-10-05T08:58:31.191Z,79.96
2017-10-05T08:59:38.222Z,80.01
2017-10-05T09:00:44.781Z,80.03
2017-10-05T09:01:51.546Z,80.04
2017-10-05T09:02:58.304Z,80.02
2017-10-05T09:04:05.154Z,79.99
2017-10-05T09:05:12.409Z,80.03
2017-10-05T09:06:18.691Z,80.02
2017-10-05T09:07:25.520Z,80.02
2017-10-05T09:08:32.349Z,80.01
2017-10-05T09:09:39.384Z,80.03
2017-10-05T09:10:46.217Z,80.10
2017-10-05T09:11:52.961Z,80.15
2017-10-05T09:12:59.755Z,80.17
2017-10-05T09:14:06.610Z,80.13
2017-10-05T09:15:13.491Z,80.12
2017-10-05T09:16:20.289Z,80.11
2017-10-05T09:17:27.184Z,80.13
2017-10-05T09:18:33.954Z,80.18
2017-10-05T09:19:41.001Z,80.13
2017-10-05T09:20:47.758Z,80.16
2017-10-05T09:21:54.672Z,80.21
2017-10-05T09:23:01.433Z,80.25
2017-10-05T09:24:08.201Z,80.22
2017-10-05T09:25:14.990Z,80.23
2017-10-05T09:26:22.030Z,80.26
2017-10-05T09:27:28.814Z,80.31
2017-10-05T09:28:35.594Z,80.35
2017-10-05T09:29:43.533Z,80.38
2017-10-05T09:30:49.293Z,80.43
2017-10-05T09:31:56.221Z,80.53
2017-10-05T09:33:03.246Z,80.59
2017-10-05T09:34:10.125Z,80.63
2017-10-05T09:35:16.921Z,80.70
2017-10-05T09:36:23.668Z,80.74
2017-10-05T09:37:31.058Z,80.79
2017-10-05T09:38:37.401Z,80.88
2017-10-05T09:39:44.193Z,80.91
2017-10-05T09:40:50.977Z,80.94
2017-10-05T09:41:57.745Z,81.01
2017-10-05T09:43:04.535Z,81.11
2017-10-05T09:44:11.309Z,81.11
2017-10-05T09:45:18.126Z,81.22
2017-10-05T09:46:24.965Z,81.32
2017-10-05T09:47:32.230Z,81.34
2017-10-05T09:48:38.998Z,81.41
2017-10-05T09:49:45.801Z,81.40
2017-10-05T09:50:52.557Z,81.39
2017-10-05T09:51:59.339Z,81.42
2017-10-05T09:53:06.150Z,81.47
2017-10-05T09:54:12.947Z,81.50
2017-10-05T09:55:19.738Z,81.51
2017-10-05T09:56:26.502Z,81.47
2017-10-05T09:57:33.353Z,81.51
2017-10-05T09:58:40.117Z,81.59
2017-10-05T09:59:46.897Z,81.63
2017-10-05T10:00:53.673Z,81.70
2017-10-05T10:02:00.425Z,81.78
2017-10-05T10:03:07.191Z,81.80
2017-10-05T10:04:13.966Z,81.89
2017-10-05T10:05:21.562Z,81.93
2017-10-05T10:06:27.862Z,81.89
2017-10-05T10:07:34.633Z,81.93
2017-10-05T10:08:41.554Z,81.95
2017-10-05T10:09:48.382Z,81.94
2017-10-05T10:10:55.134Z,81.98
2017-10-05T10:12:02.082Z,82.00
2017-10-05T10:13:08.865Z,82.10
2017-10-05T10:14:15.806Z,82.10
2017-10-05T10:15:22.569Z,82.16
2017-10-05T10:16:29.313Z,82.18
2017-10-05T10:17:36.053Z,82.22
2017-10-05T10:18:42.781Z,82.26
2017-10-05T10:19:49.598Z,82.37
2017-10-05T10:20:56.405Z,82.39
2017-10-05T10:22:03.171Z,82.49
2017-10-05T10:23:10.004Z,82.51
2017-10-05T10:24:16.748Z,82.55
2017-10-05T10:25:23.501Z,82.68
2017-10-05T10:26:30.286Z,82.73
2017-10-05T10:27:37.101Z,82.76
2017-10-05T10:28:43.909Z,82.66
2017-10-05T10:29:50.695Z,82.70
2017-10-05T10:30:57.449Z,82.75
2017-10-05T10:32:04.294Z,82.75
2017-10-05T10:33:11.298Z,82.80
2017-10-05T10:34:18.162Z,82.84
2017-10-05T10:35:25.385Z,82.84
2017-10-05T10:36:31.684Z,82.80
2017-10-05T10:37:38.431Z,82.80
2017-10-05T10:38:45.549Z,82.83
2017-10-05T10:39:52.300Z,82.88
2017-10-05T10:40:59.175Z,82.85
2017-10-05T10:42:06.049Z,82.87
2017-10-05T10:43:12.771Z,82.85
2017-10-05T10:44:19.557Z,82.85
2017-10-05T10:45:26.297Z,82.91
2017-10-05T10:46:33.193Z,82.89
2017-10-05T10:47:39.989Z,82.98
2017-10-05T10:48:46.863Z,83.07
2017-10-05T10:49:53.999Z,83.13
2017-10-05T10:51:00.561Z,83.16
2017-10-05T10:52:07.467Z,83.18
2017-10-05T10:53:14.281Z,83.15
2017-10-05T10:54:21.017Z,83.21
2017-10-05T10:55:27.732Z,83.20
2017-10-05T10:56:34.530Z,83.25
2017-10-05T10:57:41.337Z,83.23
2017-10-05T10:58:48.065Z,83.27
2017-10-05T10:59:54.942Z,83.30
2017-10-05T11:01:02.165Z,83.30
2017-10-05T11:02:09.057Z,83.28
2017-10-05T11:03:15.844Z,83.33
2017-10-05T11:04:22.825Z,83.32
2017-10-05T11:05:29.969Z,83.36
2017-10-05T11:06:36.942Z,83.37
2017-10-05T11:07:43.806Z,83.42
2017-10-05T11:08:50.806Z,83.53
2017-10-05T11:09:57.674Z,83.56
2017-10-05T11:11:04.405Z,83.56
2017-10-05T11:12:11.281Z,83.57
2017-10-05T11:13:18.066Z,83.65
2017-10-05T11:14:24.962Z,83.67
2017-10-05T11:15:31.749Z,83.75
2017-10-05T11:16:38.536Z,83.78
2017-10-05T11:17:45.388Z,83.78
2017-10-05T11:18:52.167Z,83.78
2017-10-05T11:19:59.011Z,83.79
2017-10-05T11:21:05.781Z,83.81
2017-10-05T11:22:12.546Z,83.74
2017-10-05T11:23:19.312Z,83.77
2017-10-05T11:24:26.137Z,83.79
2017-10-05T11:25:33.089Z,83.73
2017-10-05T11:26:39.832Z,83.75
2017-10-05T11:27:46.698Z,83.80
2017-10-05T11:28:53.975Z,83.78
2017-10-05T11:30:00.737Z,83.77
2017-10-05T11:31:07.465Z,83.82
2017-10-05T11:32:14.331Z,83.83
2017-10-05T11:33:21.138Z,83.84
2017-10-05T11:34:28.009Z,83.81
2017-10-05T11:35:34.778Z,83.82
2017-10-05T11:36:41.566Z,83.82
2017-10-05T11:37:48.329Z,83.85
2017-10-05T11:38:55.129Z,83.86
2017-10-05T11:40:01.965Z,83.90
2017-10-05T11:41:08.785Z,83.94
2017-10-05T11:42:15.581Z,83.96
2017-10-05T11:43:22.394Z,84.00
2017-10-05T11:44:29.134Z,84.04
2017-10-05T11:45:35.962Z,84.06
2017-10-05T11:46:42.789Z,84.07
2017-10-05T11:47:49.604Z,84.10
2017-10-05T11:48:56.377Z,84.14
2017-10-05T11:50:03.141Z,84.21
2017-10-05T11:51:09.936Z,84.24
2017-10-05T11:52:16.750Z,84.23
2017-10-05T11:53:23.538Z,84.26
2017-10-05T11:54:30.358Z,84.33
2017-10-05T11:55:37.181Z,84.30
2017-10-05T11:56:43.969Z,84.34
2017-10-05T11:57:50.745Z,84.35
2017-10-05T11:58:57.606Z,84.38
2017-10-05T12:00:04.406Z,84.38
2017-10-05T12:01:11.197Z,84.37
2017-10-05T12:02:17.981Z,84.42
2017-10-05T12:03:24.860Z,84.45
2017-10-05T12:04:31.761Z,84.47
2017-10-05T12:05:38.709Z,84.50
2017-10-05T12:06:45.450Z,84.52
2017-10-05T12:07:52.266Z,84.57
2017-10-05T12:08:59.064Z,84.56
2017-10-05T12:10:05.828Z,84.53
2017-10-05T12:11:12.593Z,84.55
2017-10-05T12:12:19.359Z,84.59
2017-10-05T12:13:26.200Z,84.62
2017-10-05T12:14:32.973Z,84.63
2017-10-05T12:15:39.721Z,84.65
2017-10-05T12:16:46.442Z,84.69
2017-10-05T12:17:53.604Z,84.73
2017-10-05T12:19:00.029Z,84.75
2017-10-05T12:20:06.918Z,84.78
2017-10-05T12:21:13.663Z,84.80
2017-10-05T12:22:20.449Z,84.82
2017-10-05T12:23:27.305Z,84.86
2017-10-05T12:24:34.062Z,84.84
2017-10-05T12:25:40.857Z,84.83
2017-10-05T12:26:47.798Z,84.86
2017-10-05T12:27:54.586Z,84.89
2017-10-05T12:29:01.753Z,84.87
2017-10-05T12:30:08.479Z,84.91
2017-10-05T12:31:15.221Z,84.96
2017-10-05T12:32:21.973Z,85.01
2017-10-05T12:33:28.744Z,85.07
2017-10-05T12:34:35.605Z,85.10
2017-10-05T12:35:42.494Z,85.14
2017-10-05T12:36:49.342Z,85.17
2017-10-05T12:37:56.149Z,85.20
2017-10-05T12:39:02.904Z,85.25
2017-10-05T12:40:09.717Z,85.26
2017-10-05T12:41:16.472Z,85.33
2017-10-05T12:42:23.337Z,85.37
2017-10-05T12:43:30.069Z,85.44
2017-10-05T12:44:36.962Z,85.46
2017-10-05T12:45:43.757Z,85.50
2017-10-05T12:46:50.499Z,85.52
2017-10-05T12:47:57.472Z,85.55
2017-10-05T12:49:04.238Z,85.60
2017-10-05T12:50:10.982Z,85.67
2017-10-05T12:51:17.874Z,85.72
2017-10-05T12:52:24.734Z,85.75
2017-10-05T12:53:31.484Z,85.82
2017-10-05T12:54:38.306Z,85.91
2017-10-05T12:55:45.166Z,85.97
2017-10-05T12:56:51.958Z,86.03
2017-10-05T12:57:58.734Z,86.08
2017-10-05T12:59:05.547Z,86.13
2017-10-05T13:00:12.514Z,86.24
2017-10-05T13:01:19.689Z,86.24
2017-10-05T13:02:27.370Z,86.27
2017-10-05T13:03:33.345Z,86.28
2017-10-05T13:04:40.109Z,86.29
2017-10-05T13:05:47.042Z,86.34
2017-10-05T13:06:53.970Z,86.41
2017-10-05T13:08:00.726Z,86.45
2017-10-05T13:09:07.561Z,86.47
2017-10-05T13:10:14.430Z,86.50
2017-10-05T13:11:21.205Z,86.53
2017-10-05T13:12:28.050Z,86.57
2017-10-05T13:13:35.090Z,86.63
2017-10-05T13:14:41.985Z,86.67
2017-10-05T13:15:48.824Z,86.66
2017-10-05T13:16:55.685Z,86.55
2017-10-05T13:18:02.509Z,86.49
2017-10-05T13:19:09.417Z,86.44
2017-10-05T13:20:16.637Z,86.35
2017-10-05T13:21:23.005Z,86.33
2017-10-05T13:22:29.812Z,86.35
2017-10-05T13:23:36.739Z,86.31
2017-10-05T13:24:43.506Z,86.33
2017-10-05T13:25:50.354Z,86.33
2017-10-05T13:26:57.413Z,86.30
2017-10-05T13:28:04.477Z,86.34
2017-10-05T13:29:11.954Z,86.35
2017-10-05T13:30:18.245Z,86.30
2017-10-05T13:31:25.129Z,86.20
2017-10-05T13:32:31.925Z,86.24
2017-10-05T13:33:38.673Z,86.26
2017-10-05T13:34:45.486Z,86.24
2017-10-05T13:35:52.450Z,86.11
2017-10-05T13:36:59.304Z,86.10
2017-10-05T13:38:06.065Z,86.14
2017-10-05T13:39:12.837Z,86.14
2017-10-05T13:40:19.641Z,86.05
2017-10-05T13:41:26.430Z,86.10
2017-10-05T13:42:33.343Z,86.09
2017-10-05T13:43:40.198Z,85.99
2017-10-05T13:44:47.132Z,86.00
2017-10-05T13:45:53.942Z,86.08
2017-10-05T13:47:00.801Z,86.08
2017-10-05T13:48:07.538Z,86.08
2017-10-05T13:49:14.305Z,85.99
2017-10-05T13:50:21.273Z,85.92
2017-10-05T13:51:28.065Z,85.87
2017-10-05T13:52:34.805Z,85.81
2017-10-05T13:53:41.580Z,85.80
2017-10-05T13:54:48.358Z,85.75
2017-10-05T13:55:55.154Z,85.66
2017-10-05T13:57:01.954Z,85.58
2017-10-05T13:58:08.726Z,85.53
2017-10-05T13:59:15.469Z,85.48
2017-10-05T14:00:22.193Z,85.42
2017-10-05T14:01:28.974Z,85.38
2017-10-05T14:02:35.712Z,85.27
2017-10-05T14:03:42.533Z,85.25
2017-10-05T14:04:49.457Z,85.15
2017-10-05T14:05:56.637Z,85.18
2017-10-05T14:07:03.413Z,85.24
2017-10-05T14:08:10.231Z,85.26
2017-10-05T14:09:17.143Z,85.26
2017-10-05T14:10:23.918Z,85.22
2017-10-05T14:11:30.709Z,85.23
2017-10-05T14:12:37.799Z,85.21
2017-10-05T14:13:44.590Z,85.19
2017-10-05T14:14:51.422Z,85.17
2017-10-05T14:15:58.166Z,85.16
2017-10-05T14:17:05.235Z,85.11
2017-10-05T14:18:11.987Z,85.09
2017-10-05T14:19:18.726Z,85.13
2017-10-05T14:20:25.528Z,85.23